Time;durP1;ratioP1;P1;durP2;ratioP2;P2;SDS_P1;SDS_P2;PMS_P1;PMS_P2;Temp;Humidity;BMP_temperature;BMP_pressure;BME280_temperature;BME280_humidity;BME280_pressure;Samples;Min_cycle;Max_cycle;Signal;HPM_P1;HPM_P2
2022/12/04 00:01:25;;;;;;;29.80;11.00;;;1.50;99.90;;;;;;4990104;28;20044;-66
2022/12/04 00:03:52;;;;;;;28.58;10.80;;;1.50;99.90;;;;;;4995559;28;20046;-66
2022/12/04 00:06:19;;;;;;;28.08;11.95;;;1.50;99.90;;;;;;4965254;28;20053;-67
2022/12/04 00:08:46;;;;;;;26.48;11.13;;;1.50;99.90;;;;;;4983299;28;20038;-66
2022/12/04 00:11:15;;;;;;;29.85;11.38;;;1.50;99.90;;;;;;4980969;28;20147;-66
2022/12/04 00:13:41;;;;;;;39.13;12.10;;;1.50;99.90;;;;;;5001199;28;20052;-67
2022/12/04 00:16:10;;;;;;;29.13;9.93;;;1.50;99.90;;;;;;5002769;28;20038;-67
2022/12/04 00:18:36;;;;;;;26.27;11.93;;;1.50;99.90;;;;;;4999194;28;20044;-66
2022/12/04 00:21:07;;;;;;;24.10;10.30;;;1.60;99.90;;;;;;4982122;28;20391;-67
2022/12/04 00:23:34;;;;;;;30.58;10.48;;;1.60;99.90;;;;;;4978010;28;20129;-67
2022/12/04 00:26:01;;;;;;;30.58;10.82;;;1.60;99.90;;;;;;4997841;28;20491;-66
2022/12/04 00:28:27;;;;;;;25.85;10.43;;;1.60;99.90;;;;;;4982646;28;20057;-66
2022/12/04 00:30:53;;;;;;;23.30;9.67;;;1.60;99.90;;;;;;4981066;28;20042;-66
2022/12/04 00:33:18;;;;;;;26.60;10.67;;;1.60;99.90;;;;;;4997754;28;20042;-67
2022/12/04 00:35:44;;;;;;;27.40;9.13;;;1.60;99.90;;;;;;5011976;28;20038;-67
2022/12/04 00:38:09;;;;;;;26.83;9.93;;;1.60;99.90;;;;;;4999317;28;20049;-67
2022/12/04 00:40:35;;;;;;;27.87;10.67;;;1.60;99.90;;;;;;4993998;28;20045;-71
2022/12/04 00:43:01;;;;;;;32.97;11.63;;;1.60;99.90;;;;;;5002679;28;20037;-66
2022/12/04 00:45:26;;;;;;;32.67;11.03;;;1.60;99.90;;;;;;4993123;28;20049;-66
2022/12/04 00:47:52;;;;;;;28.90;10.73;;;1.60;99.90;;;;;;4999576;28;20089;-73
2022/12/04 00:50:18;;;;;;;26.30;8.67;;;1.60;99.90;;;;;;5004072;28;20116;-66
2022/12/04 00:52:43;;;;;;;28.83;10.63;;;1.60;99.90;;;;;;4987818;28;20273;-66
2022/12/04 00:55:09;;;;;;;26.67;9.60;;;1.60;99.90;;;;;;5000569;28;20121;-66
2022/12/04 00:57:34;;;;;;;24.47;8.50;;;1.60;99.90;;;;;;5008994;28;20506;-66
2022/12/04 01:00:00;;;;;;;25.37;8.60;;;1.60;99.90;;;;;;4988074;28;20100;-66
2022/12/04 01:02:26;;;;;;;23.33;9.07;;;1.60;99.90;;;;;;4996532;28;20372;-66
2022/12/04 01:04:51;;;;;;;27.33;9.20;;;1.60;99.90;;;;;;4995041;28;20077;-66
2022/12/04 01:07:17;;;;;;;25.27;10.13;;;1.60;99.90;;;;;;5004513;28;20165;-67
2022/12/04 01:09:43;;;;;;;20.50;7.80;;;1.60;99.90;;;;;;4996333;28;20646;-66
2022/12/04 01:12:08;;;;;;;23.03;8.83;;;1.60;99.90;;;;;;4981067;28;20045;-66
2022/12/04 01:14:34;;;;;;;23.53;9.43;;;1.60;99.90;;;;;;4995856;28;20041;-66
2022/12/04 01:16:59;;;;;;;24.17;8.77;;;1.60;99.90;;;;;;5001721;28;20048;-66
2022/12/04 01:19:25;;;;;;;26.97;9.80;;;1.50;99.90;;;;;;5004347;28;20112;-66
2022/12/04 01:21:51;;;;;;;25.70;11.97;;;1.60;99.90;;;;;;4992625;28;20049;-66
2022/12/04 01:24:17;;;;;;;;;;;1.60;99.90;;;;;;5003604;28;20115;-66
2022/12/04 01:26:43;;;;;;;23.48;9.18;;;1.60;99.90;;;;;;4992098;28;19925;-66
2022/12/04 01:29:08;;;;;;;23.60;9.10;;;1.60;99.90;;;;;;5000374;28;20034;-66
2022/12/04 01:31:34;;;;;;;22.10;9.77;;;1.60;99.90;;;;;;4975952;28;20132;-66
2022/12/04 01:34:00;;;;;;;20.57;9.33;;;1.60;99.90;;;;;;5010024;28;20034;-67
2022/12/04 01:36:27;;;;;;;23.70;9.73;;;1.60;99.90;;;;;;5008900;28;20086;-67
2022/12/04 01:38:54;;;;;;;25.40;9.85;;;1.60;99.90;;;;;;4996304;28;20033;-66
2022/12/04 01:41:21;;;;;;;;;;;1.60;99.90;;;;;;5000035;28;20042;-67
2022/12/04 01:44:14;;;;;;;26.35;9.27;;;1.60;99.90;;;;;;5007660;28;19956;-66
2022/12/04 01:46:42;;;;;;;31.15;10.77;;;1.60;99.90;;;;;;4989715;28;20057;-76
2022/12/04 01:49:13;;;;;;;26.27;10.82;;;1.60;99.90;;;;;;4991300;28;20048;-75
2022/12/04 01:51:44;;;;;;;35.50;10.13;;;1.60;99.90;;;;;;5006913;28;20046;-75
2022/12/04 01:54:27;;;;;;;24.15;9.95;;;1.60;99.90;;;;;;5004750;28;20050;-67
2022/12/04 01:56:59;;;;;;;26.67;9.90;;;1.60;99.90;;;;;;5008332;28;20065;-66
2022/12/04 01:59:29;;;;;;;29.13;10.23;;;1.50;99.90;;;;;;4999080;28;20104;-67
2022/12/04 02:02:01;;;;;;;29.27;11.57;;;1.50;99.90;;;;;;5000105;28;20042;-67
2022/12/04 02:04:27;;;;;;;23.85;9.63;;;1.50;99.90;;;;;;5008956;28;20038;-66
2022/12/04 02:06:53;;;;;;;23.38;10.00;;;1.50;99.90;;;;;;4997426;28;20038;-67
2022/12/04 02:09:20;;;;;;;22.60;9.03;;;1.50;99.90;;;;;;5001169;28;20041;-67
2022/12/04 02:11:56;;;;;;;22.17;8.80;;;1.50;99.90;;;;;;4999685;28;20777;-66
2022/12/04 02:14:59;;;;;;;23.10;9.82;;;1.50;99.90;;;;;;4981077;28;20092;-67
2022/12/04 02:17:53;;;;;;;22.85;9.50;;;1.40;99.90;;;;;;4999983;28;20076;-67
2022/12/04 02:20:47;;;;;;;24.33;9.45;;;1.50;99.90;;;;;;4998467;28;20065;-67
2022/12/04 02:23:28;;;;;;;26.88;10.60;;;1.40;99.90;;;;;;4984764;28;20053;-66
2022/12/04 02:26:18;;;;;;;26.27;10.82;;;1.40;99.90;;;;;;5003011;28;20175;-67
2022/12/04 02:28:56;;;;;;;31.65;10.43;;;1.40;99.90;;;;;;4999738;28;20424;-67
2022/12/04 02:31:30;;;;;;;23.38;10.70;;;1.40;99.90;;;;;;4997791;28;20409;-67
2022/12/04 02:34:32;;;;;;;29.33;11.40;;;1.40;99.90;;;;;;4999295;28;20054;-66
2022/12/04 02:37:27;;;;;;;28.77;9.63;;;1.40;99.90;;;;;;4944761;28;20546;-66
2022/12/04 02:40:06;;;;;;;30.15;11.82;;;1.40;99.90;;;;;;4993057;28;20188;-66
2022/12/04 02:42:58;;;;;;;26.95;10.38;;;1.30;99.90;;;;;;4997309;28;20069;-66
2022/12/04 02:45:28;;;;;;;24.30;10.48;;;1.30;99.90;;;;;;4998116;28;20050;-66
2022/12/04 02:47:55;;;;;;;31.98;11.55;;;1.30;99.90;;;;;;5005424;28;20567;-66
2022/12/04 02:50:23;;;;;;;35.25;11.55;;;1.40;99.90;;;;;;5008445;28;20068;-66
2022/12/04 02:52:53;;;;;;;33.08;11.15;;;1.30;99.90;;;;;;5000888;28;20054;-66
2022/12/04 02:55:23;;;;;;;24.95;10.57;;;1.30;99.90;;;;;;5009932;28;20088;-66
2022/12/04 02:57:53;;;;;;;25.88;10.32;;;1.40;99.90;;;;;;5000223;28;20046;-66
2022/12/04 03:00:21;;;;;;;28.45;11.32;;;1.30;99.90;;;;;;5002111;28;20049;-66
2022/12/04 03:03:09;;;;;;;28.77;10.48;;;1.30;99.90;;;;;;5003514;28;20069;-66
2022/12/04 03:05:46;;;;;;;33.90;11.82;;;1.30;99.90;;;;;;4998218;28;20041;-66
2022/12/04 03:08:20;;;;;;;29.52;11.88;;;1.40;99.90;;;;;;5006418;28;20215;-66
2022/12/04 03:10:51;;;;;;;33.20;11.65;;;1.40;99.90;;;;;;5000393;28;20049;-66
2022/12/04 03:13:31;;;;;;;31.65;11.73;;;1.30;99.90;;;;;;4997123;28;20046;-65
2022/12/04 03:16:12;;;;;;;35.08;12.23;;;1.30;99.90;;;;;;4981892;28;20358;-66
2022/12/04 03:18:42;;;;;;;29.60;11.93;;;1.30;99.90;;;;;;5005044;28;20103;-66
2022/12/04 03:21:13;;;;;;;31.52;12.90;;;1.30;99.90;;;;;;4981202;28;20048;-66
2022/12/04 03:23:46;;;;;;;26.13;11.07;;;1.30;99.90;;;;;;5001882;28;20449;-66
2022/12/04 03:26:21;;;;;;;33.08;13.25;;;1.30;99.90;;;;;;4993155;28;20454;-66
2022/12/04 03:29:12;;;;;;;31.13;13.38;;;1.30;99.90;;;;;;4997933;28;20038;-66
2022/12/04 03:32:03;;;;;;;36.38;13.07;;;1.30;99.90;;;;;;4999101;28;20319;-66
2022/12/04 03:34:41;;;;;;;30.98;11.32;;;1.30;99.90;;;;;;4985705;28;20049;-66
2022/12/04 03:37:13;;;;;;;31.05;12.45;;;1.30;99.90;;;;;;4996266;28;20161;-66
2022/12/04 03:40:14;;;;;;;34.67;12.20;;;1.30;99.90;;;;;;5005425;28;20049;-66
2022/12/04 03:42:52;;;;;;;32.13;11.77;;;1.30;99.90;;;;;;4989468;28;20388;-66
2022/12/04 03:45:24;;;;;;;32.50;12.85;;;1.30;99.90;;;;;;5007385;28;20048;-66
2022/12/04 03:48:00;;;;;;;28.02;11.60;;;1.30;99.90;;;;;;4997400;28;20124;-66
2022/12/04 03:50:29;;;;;;;37.00;13.13;;;1.30;99.90;;;;;;5001711;28;20070;-66
2022/12/04 03:53:02;;;;;;;33.78;12.90;;;1.30;99.90;;;;;;5001805;28;20052;-66
2022/12/04 03:55:35;;;;;;;27.85;11.50;;;1.30;99.90;;;;;;4990750;28;20025;-66
2022/12/04 03:58:06;;;;;;;33.10;12.98;;;1.30;99.90;;;;;;5002718;28;20399;-66
2022/12/04 04:00:36;;;;;;;35.15;12.77;;;1.30;99.90;;;;;;4996131;28;20041;-65
2022/12/04 04:03:14;;;;;;;30.80;12.70;;;1.30;99.90;;;;;;5009208;28;20470;-66
2022/12/04 04:05:45;;;;;;;32.28;12.45;;;1.30;99.90;;;;;;5000041;28;20525;-66
2022/12/04 04:08:25;;;;;;;31.10;12.73;;;1.30;99.90;;;;;;5002978;28;20326;-66
2022/12/04 04:10:57;;;;;;;30.83;12.35;;;1.30;99.90;;;;;;5001642;28;20553;-66
2022/12/04 04:24:41;;;;;;;;;;;1.30;99.90;;;;;;4989064;28;20085;-66
2022/12/04 04:27:07;;;;;;;32.28;13.05;;;1.30;99.90;;;;;;5000371;28;19997;-66
2022/12/04 04:29:33;;;;;;;33.70;13.87;;;1.30;99.90;;;;;;5003095;28;20137;-66
2022/12/04 04:32:11;;;;;;;35.33;15.20;;;1.20;99.90;;;;;;4998277;28;20268;-66
2022/12/04 04:34:39;;;;;;;34.08;13.50;;;1.30;99.90;;;;;;5000349;28;20037;-66
2022/12/04 04:37:28;;;;;;;30.08;12.93;;;1.20;99.90;;;;;;5006919;28;20041;-66
2022/12/04 04:40:00;;;;;;;29.45;12.30;;;1.20;99.90;;;;;;5008586;28;20046;-66
2022/12/04 04:42:33;;;;;;;32.75;13.60;;;1.20;99.90;;;;;;4981716;28;20069;-66
2022/12/04 04:45:30;;;;;;;35.38;14.57;;;1.20;99.90;;;;;;5100833;23;20049;-69
2022/12/04 04:48:08;;;;;;;28.33;12.25;;;1.20;99.90;;;;;;5001750;28;20053;-70
2022/12/04 04:50:35;;;;;;;37.47;14.20;;;1.20;99.90;;;;;;5027322;28;20041;-69
2022/12/04 04:53:06;;;;;;;40.55;14.20;;;1.20;99.90;;;;;;5006845;28;20045;-69
2022/12/04 04:55:34;;;;;;;35.95;14.13;;;1.20;99.90;;;;;;5021408;28;20497;-69
2022/12/04 04:58:14;;;;;;;37.22;14.32;;;1.20;99.90;;;;;;5021788;28;20029;-69
2022/12/04 05:01:05;;;;;;;36.72;14.13;;;1.20;99.90;;;;;;4988456;28;20069;-70
2022/12/04 05:03:30;;;;;;;33.05;13.50;;;1.20;99.90;;;;;;5001831;28;20045;-69
2022/12/04 05:05:56;;;;;;;39.47;15.25;;;1.20;99.90;;;;;;5025461;28;20096;-67
2022/12/04 05:08:22;;;;;;;36.87;14.43;;;1.20;99.90;;;;;;5022495;28;20037;-67
2022/12/04 05:10:48;;;;;;;40.17;14.30;;;1.20;99.90;;;;;;5018761;28;20719;-67
2022/12/04 05:13:14;;;;;;;38.88;15.00;;;1.20;99.90;;;;;;5017849;28;20111;-68
2022/12/04 05:15:40;;;;;;;;;;;1.10;99.90;;;;;;5018936;28;20041;-67
2022/12/04 05:18:07;;;;;;;32.33;14.00;;;1.10;99.90;;;;;;5003858;28;19973;-68
2022/12/04 05:20:33;;;;;;;38.40;14.73;;;1.10;99.90;;;;;;5019798;28;20076;-67
2022/12/04 05:22:58;;;;;;;38.97;14.55;;;1.10;99.90;;;;;;5008908;28;20045;-67
2022/12/04 05:25:24;;;;;;;40.93;15.57;;;1.20;99.90;;;;;;5026677;28;20564;-68
2022/12/04 05:27:50;;;;;;;35.60;14.97;;;1.10;99.90;;;;;;5026192;28;20348;-70
2022/12/04 05:30:16;;;;;;;40.97;14.87;;;1.10;99.90;;;;;;5019903;28;20034;-69
2022/12/04 05:32:42;;;;;;;34.90;13.73;;;1.10;99.90;;;;;;5023282;28;20053;-69
2022/12/04 05:35:07;;;;;;;35.90;13.27;;;1.10;99.90;;;;;;5008119;28;20609;-69
2022/12/04 05:37:37;;;;;;;31.43;12.80;;;1.10;99.90;;;;;;5016471;28;20103;-67
2022/12/04 05:40:05;;;;;;;35.08;14.25;;;1.10;99.90;;;;;;5015836;28;20381;-68
2022/12/04 05:42:31;;;;;;;32.15;12.82;;;1.10;99.90;;;;;;4998425;28;20099;-68
2022/12/04 05:44:56;;;;;;;42.90;15.30;;;1.10;99.90;;;;;;5014912;28;20445;-67
2022/12/04 05:47:22;;;;;;;36.13;13.57;;;1.10;99.90;;;;;;5021304;28;20041;-68
2022/12/04 05:49:48;;;;;;;34.43;15.07;;;1.10;99.90;;;;;;5015650;28;20113;-68
2022/12/04 05:52:13;;;;;;;37.90;13.90;;;1.10;99.90;;;;;;5016072;28;20048;-68
2022/12/04 05:54:39;;;;;;;38.80;15.10;;;1.10;99.90;;;;;;5019461;28;20511;-68
2022/12/04 05:57:05;;;;;;;35.33;13.03;;;1.10;99.90;;;;;;5009353;28;20107;-68
2022/12/04 05:59:30;;;;;;;38.63;14.00;;;1.10;99.90;;;;;;5003515;28;20045;-68
2022/12/04 06:01:56;;;;;;;39.60;14.23;;;1.10;99.90;;;;;;5002676;28;20044;-68
2022/12/04 06:04:22;;;;;;;36.23;13.97;;;1.10;99.90;;;;;;5004035;28;20049;-68
2022/12/04 06:06:47;;;;;;;34.00;14.30;;;1.10;99.90;;;;;;5006623;28;20033;-69
2022/12/04 06:09:13;;;;;;;37.37;14.27;;;1.10;99.90;;;;;;5024757;28;20061;-69
2022/12/04 06:11:40;;;;;;;36.97;13.83;;;1.10;99.90;;;;;;5021916;28;20038;-68
2022/12/04 06:14:09;;;;;;;39.42;13.75;;;1.10;99.90;;;;;;4997947;28;20123;-68
2022/12/04 06:16:40;;;;;;;36.88;14.23;;;1.10;99.90;;;;;;5026398;28;20200;-68
2022/12/04 06:19:09;;;;;;;38.30;13.68;;;1.10;99.90;;;;;;5024909;28;20369;-68
2022/12/04 06:21:36;;;;;;;42.42;15.02;;;1.10;99.90;;;;;;5015558;28;20069;-68
2022/12/04 06:24:03;;;;;;;39.40;15.02;;;1.10;99.90;;;;;;4996166;28;20480;-68
2022/12/04 06:26:29;;;;;;;38.60;15.30;;;1.10;99.90;;;;;;5018395;28;20103;-67
2022/12/04 06:28:56;;;;;;;34.00;14.07;;;1.10;99.90;;;;;;5000231;28;20042;-68
2022/12/04 06:31:24;;;;;;;39.67;15.38;;;1.10;99.90;;;;;;5018110;28;20713;-68
2022/12/04 06:33:52;;;;;;;34.45;13.43;;;1.10;99.90;;;;;;4992609;28;20037;-68
2022/12/04 06:36:20;;;;;;;36.22;14.85;;;1.10;99.90;;;;;;5029034;28;20032;-69
2022/12/04 06:38:46;;;;;;;38.47;15.00;;;1.10;99.90;;;;;;5015923;28;20049;-68
2022/12/04 06:41:14;;;;;;;34.55;12.57;;;1.10;99.90;;;;;;5007636;28;20204;-68
2022/12/04 06:43:41;;;;;;;37.28;13.90;;;1.10;99.90;;;;;;5003918;28;20054;-68
2022/12/04 06:46:15;;;;;;;40.45;15.02;;;1.10;99.90;;;;;;5024078;28;20079;-68
2022/12/04 06:48:41;;;;;;;31.38;14.13;;;1.10;99.90;;;;;;5021115;28;20103;-68
2022/12/04 06:51:12;;;;;;;36.45;13.90;;;1.00;99.90;;;;;;5021921;28;20206;-68
2022/12/04 06:53:38;;;;;;;37.60;13.90;;;1.10;99.90;;;;;;5016284;28;20104;-68
2022/12/04 06:56:07;;;;;;;35.92;14.80;;;1.10;99.90;;;;;;5020454;28;20143;-68
2022/12/04 06:58:34;;;;;;;37.90;13.77;;;1.10;99.90;;;;;;4999647;28;20054;-68
2022/12/04 07:01:09;;;;;;;37.53;14.77;;;1.10;99.90;;;;;;5004722;28;20102;-68
2022/12/04 07:03:35;;;;;;;41.35;14.45;;;1.10;99.90;;;;;;4983708;28;20056;-67
2022/12/04 07:06:14;;;;;;;33.53;13.57;;;1.10;99.90;;;;;;5005452;28;20045;-68
2022/12/04 07:08:42;;;;;;;39.50;15.05;;;1.10;99.90;;;;;;5003820;28;20057;-68
2022/12/04 07:11:08;;;;;;;40.75;14.63;;;1.10;99.90;;;;;;5020636;28;20087;-68
2022/12/04 07:13:34;;;;;;;43.85;15.07;;;1.10;99.90;;;;;;5004857;28;20045;-69
2022/12/04 07:16:04;;;;;;;37.65;13.27;;;1.20;99.90;;;;;;4999675;28;20425;-68
2022/12/04 07:18:31;;;;;;;36.15;14.85;;;1.10;99.90;;;;;;5025324;28;20041;-68
2022/12/04 07:20:57;;;;;;;34.15;13.05;;;1.10;99.90;;;;;;5012807;28;20101;-69
2022/12/04 07:23:24;;;;;;;32.75;12.55;;;1.10;99.90;;;;;;5001204;28;20296;-68
2022/12/04 07:25:49;;;;;;;37.05;13.90;;;1.10;99.90;;;;;;5018795;28;20049;-69
2022/12/04 07:28:15;;;;;;;33.50;13.20;;;1.20;99.90;;;;;;5007128;28;20068;-68
2022/12/04 07:30:41;;;;;;;34.93;13.60;;;1.20;99.90;;;;;;4997002;28;20025;-69
2022/12/04 07:33:06;;;;;;;35.90;13.30;;;1.10;99.90;;;;;;5005799;28;20069;-68
2022/12/04 07:35:32;;;;;;;36.20;13.83;;;1.20;99.90;;;;;;5010687;28;20050;-68
2022/12/04 07:37:57;;;;;;;37.13;12.60;;;1.20;99.90;;;;;;5019374;28;20083;-69
2022/12/04 07:40:23;;;;;;;36.03;13.83;;;1.20;99.90;;;;;;5021949;28;20072;-69
2022/12/04 07:42:49;;;;;;;37.43;14.07;;;1.20;99.90;;;;;;5021572;28;20117;-69
2022/12/04 07:45:15;;;;;;;36.93;14.07;;;1.20;99.90;;;;;;5011404;28;20192;-68
2022/12/04 07:47:40;;;;;;;37.70;13.40;;;1.20;99.90;;;;;;5002735;28;20038;-69
2022/12/04 07:50:06;;;;;;;34.23;12.57;;;1.20;99.90;;;;;;5002618;28;20092;-69
2022/12/04 07:52:36;;;;;;;37.03;13.93;;;1.20;99.90;;;;;;5013787;28;20049;-69
2022/12/04 07:55:03;;;;;;;33.90;14.15;;;1.20;99.90;;;;;;5014171;28;20053;-68
2022/12/04 07:57:29;;;;;;;37.63;14.02;;;1.20;99.90;;;;;;5006326;28;20072;-69
2022/12/04 07:59:54;;;;;;;37.20;13.90;;;1.20;99.90;;;;;;5000104;28;20037;-69
2022/12/04 08:02:20;;;;;;;42.10;15.40;;;1.20;99.90;;;;;;5016318;28;20429;-68
2022/12/04 08:04:46;;;;;;;36.23;13.20;;;1.20;99.90;;;;;;5005870;28;20596;-69
2022/12/04 08:07:12;;;;;;;37.43;14.23;;;1.20;99.90;;;;;;5020273;28;20684;-68
2022/12/04 08:09:38;;;;;;;39.67;13.15;;;1.20;99.90;;;;;;5006513;28;20766;-69
2022/12/04 08:12:04;;;;;;;37.87;14.30;;;1.20;99.90;;;;;;5018080;28;20046;-69
2022/12/04 08:14:29;;;;;;;32.57;14.10;;;1.30;99.90;;;;;;5013745;28;20085;-68
2022/12/04 08:16:55;;;;;;;36.37;13.13;;;1.20;99.90;;;;;;5015417;28;20029;-69
2022/12/04 08:19:21;;;;;;;33.47;14.23;;;1.30;99.90;;;;;;4997503;28;20205;-69
2022/12/04 08:21:47;;;;;;;32.88;13.65;;;1.30;99.90;;;;;;5017638;28;20056;-69
2022/12/04 08:24:12;;;;;;;39.53;14.75;;;1.30;99.90;;;;;;4995848;28;20046;-68
2022/12/04 08:26:38;;;;;;;38.60;14.13;;;1.30;99.90;;;;;;5023552;28;20048;-69
2022/12/04 08:29:05;;;;;;;34.50;13.57;;;1.30;99.90;;;;;;5027633;28;20502;-69
2022/12/04 08:31:34;;;;;;;41.90;14.30;;;1.30;99.90;;;;;;5019269;28;20079;-69
2022/12/04 08:34:02;;;;;;;33.40;13.77;;;1.30;99.90;;;;;;5018383;28;20125;-69
2022/12/04 08:36:28;;;;;;;39.13;13.82;;;1.30;99.90;;;;;;5014366;28;20042;-68
2022/12/04 08:38:54;;;;;;;40.33;13.50;;;1.30;99.90;;;;;;4985066;28;20052;-69
2022/12/04 08:41:22;;;;;;;39.42;14.45;;;1.30;99.90;;;;;;5020889;28;20103;-68
2022/12/04 08:43:49;;;;;;;35.35;13.18;;;1.30;99.90;;;;;;5015275;28;21519;-68
2022/12/04 08:46:17;;;;;;;34.70;13.18;;;1.30;99.90;;;;;;5022314;28;20037;-68
2022/12/04 08:48:43;;;;;;;35.38;12.40;;;1.40;99.90;;;;;;5018261;28;20045;-68
2022/12/04 08:51:14;;;;;;;32.90;13.45;;;1.30;99.90;;;;;;5007430;28;20525;-68
2022/12/04 08:53:40;;;;;;;31.05;13.38;;;1.40;99.90;;;;;;5017134;28;20119;-68
2022/12/04 08:56:06;;;;;;;31.50;14.30;;;1.40;99.90;;;;;;5026532;28;20038;-68
2022/12/04 08:58:32;;;;;;;45.87;15.53;;;1.40;99.90;;;;;;5020849;28;20235;-68
2022/12/04 09:01:04;;;;;;;41.97;14.77;;;1.40;99.90;;;;;;5023011;28;20038;-69
2022/12/04 09:03:30;;;;;;;38.85;13.52;;;1.40;99.90;;;;;;5025089;28;20477;-68
2022/12/04 09:06:03;;;;;;;32.37;14.33;;;1.40;99.90;;;;;;5028061;28;20120;-68
2022/12/04 09:08:29;;;;;;;33.40;13.48;;;1.50;99.90;;;;;;5010558;28;20048;-68
2022/12/04 09:11:00;;;;;;;32.55;13.63;;;1.50;99.90;;;;;;5018947;28;20038;-68
2022/12/04 09:13:26;;;;;;;37.72;14.75;;;1.50;99.90;;;;;;5018384;28;20418;-68
2022/12/04 09:15:55;;;;;;;33.50;13.70;;;1.50;99.90;;;;;;4995796;28;20044;-68
2022/12/04 09:18:20;;;;;;;32.63;14.10;;;1.50;99.90;;;;;;5013609;28;20084;-68
2022/12/04 09:20:54;;;;;;;35.67;12.87;;;1.50;99.90;;;;;;5014045;28;20030;-68
2022/12/04 09:23:20;;;;;;;40.85;14.75;;;1.40;99.90;;;;;;4997735;28;20050;-67
2022/12/04 09:25:46;;;;;;;41.80;14.87;;;1.60;99.90;;;;;;5013730;28;20064;-76
2022/12/04 09:28:11;;;;;;;32.73;14.30;;;1.60;99.90;;;;;;5020715;28;20087;-68
2022/12/04 09:30:37;;;;;;;36.63;15.27;;;1.60;99.90;;;;;;5023685;28;20072;-68
2022/12/04 09:33:02;;;;;;;40.20;15.00;;;1.60;99.90;;;;;;5015776;28;20033;-68
2022/12/04 09:35:31;;;;;;;33.72;13.07;;;1.60;99.90;;;;;;5011933;28;20034;-68
2022/12/04 09:37:58;;;;;;;39.20;13.97;;;1.70;99.90;;;;;;5023516;28;20462;-68
2022/12/04 09:40:39;;;;;;;31.90;13.48;;;1.70;99.90;;;;;;5020563;28;20103;-67
2022/12/04 09:43:52;;;;;;;30.90;13.25;;;1.70;99.90;;;;;;5023070;28;20111;-69
2022/12/04 09:46:29;;;;;;;37.72;13.93;;;1.70;99.90;;;;;;4957012;28;20046;-69
2022/12/04 09:49:00;;;;;;;34.40;13.30;;;1.70;99.90;;;;;;4961576;28;20423;-68
2022/12/04 09:51:30;;;;;;;31.13;13.05;;;1.80;99.90;;;;;;4977113;28;20041;-69
2022/12/04 09:54:12;;;;;;;35.13;14.00;;;1.80;99.90;;;;;;5019451;28;20504;-69
2022/12/04 09:56:39;;;;;;;31.65;12.80;;;1.90;99.90;;;;;;4994021;28;20069;-68
2022/12/04 09:59:12;;;;;;;30.92;12.25;;;1.90;99.90;;;;;;5017861;28;20100;-69
2022/12/04 10:01:46;;;;;;;32.00;13.00;;;1.90;99.90;;;;;;4995733;28;20504;-68
2022/12/04 10:04:13;;;;;;;30.95;12.57;;;1.90;99.90;;;;;;5012145;28;20037;-69
2022/12/04 10:06:42;;;;;;;31.13;13.57;;;2.00;99.90;;;;;;5017793;28;20259;-68
2022/12/04 10:09:18;;;;;;;30.17;12.27;;;1.90;99.90;;;;;;5020178;28;20048;-68
2022/12/04 10:12:08;;;;;;;32.38;12.63;;;2.00;99.90;;;;;;5006419;28;20076;-68
2022/12/04 10:15:02;;;;;;;29.70;12.50;;;2.00;99.90;;;;;;5021093;28;20076;-69
2022/12/04 10:17:43;;;;;;;29.15;11.88;;;2.00;99.90;;;;;;4999961;28;20045;-71
2022/12/04 10:20:46;;;;;;;31.83;12.10;;;2.10;99.90;;;;;;5000252;28;20148;-68
2022/12/04 10:23:18;;;;;;;27.40;12.57;;;2.10;99.90;;;;;;4970092;28;20042;-68
2022/12/04 10:25:44;;;;;;;24.45;11.32;;;2.10;99.90;;;;;;5021170;28;20038;-72
2022/12/04 10:28:36;;;;;;;34.30;12.33;;;2.20;99.90;;;;;;5016295;28;20068;-68
2022/12/04 10:31:04;;;;;;;31.58;12.75;;;2.20;99.90;;;;;;5010364;28;20099;-70
2022/12/04 10:33:40;;;;;;;25.75;10.98;;;2.20;99.90;;;;;;5015574;28;20453;-71
2022/12/04 10:36:10;;;;;;;30.63;11.50;;;2.20;99.90;;;;;;5004279;28;20037;-70
2022/12/04 10:38:41;;;;;;;27.88;12.10;;;2.20;99.90;;;;;;5024064;28;20184;-70
2022/12/04 10:41:21;;;;;;;30.25;12.23;;;2.30;99.90;;;;;;4998247;28;20449;-70
2022/12/04 10:43:49;;;;;;;28.70;11.07;;;2.30;99.90;;;;;;5026587;28;20121;-69
2022/12/04 10:48:45;;;;;;;25.50;11.13;;;2.40;99.90;;;;;;5006667;28;20116;-68
2022/12/04 10:51:16;;;;;;;26.23;11.65;;;2.40;99.90;;;;;;4959585;28;20054;-68
2022/12/04 10:53:44;;;;;;;25.98;11.10;;;2.40;99.90;;;;;;4993500;28;20042;-68
2022/12/04 10:56:11;;;;;;;27.73;11.07;;;2.50;99.90;;;;;;4994961;28;20049;-67
2022/12/04 10:58:36;;;;;;;25.63;10.27;;;2.50;99.90;;;;;;5003028;28;20077;-68
2022/12/04 11:01:09;;;;;;;25.33;10.27;;;2.50;99.90;;;;;;4999258;28;20034;-68
2022/12/04 11:03:35;;;;;;;35.47;14.68;;;2.60;99.90;;;;;;4985298;28;20058;-68
2022/12/04 11:06:05;;;;;;;23.13;10.15;;;2.60;99.90;;;;;;4999189;28;20042;-68
2022/12/04 11:08:48;;;;;;;22.90;10.70;;;2.60;99.90;;;;;;5004062;28;20046;-68
2022/12/04 11:11:21;;;;;;;23.05;9.13;;;2.80;99.90;;;;;;5004045;28;20404;-68
2022/12/04 11:13:46;;;;;;;22.42;9.02;;;2.70;99.90;;;;;;5005581;28;20038;-68
2022/12/04 11:16:47;;;;;;;22.00;10.00;;;2.80;99.90;;;;;;4998234;28;20041;-68
2022/12/04 11:19:27;;;;;;;22.33;9.05;;;2.70;99.90;;;;;;4974372;28;20116;-67
2022/12/04 11:22:02;;;;;;;22.75;10.38;;;2.80;99.90;;;;;;5008916;28;20388;-69
2022/12/04 11:24:29;;;;;;;26.20;9.73;;;2.80;99.90;;;;;;5001968;28;20049;-68
2022/12/04 11:26:56;;;;;;;21.15;8.32;;;2.80;99.90;;;;;;5011528;28;20044;-68
2022/12/04 11:29:31;;;;;;;24.70;9.75;;;2.80;99.90;;;;;;4986664;28;20046;-68
2022/12/04 11:31:57;;;;;;;21.25;9.23;;;2.80;99.90;;;;;;4999749;28;20503;-67
2022/12/04 11:34:31;;;;;;;23.83;8.77;;;2.80;99.90;;;;;;5011256;28;20040;-68
2022/12/04 11:36:57;;;;;;;24.70;9.65;;;2.80;99.90;;;;;;4980531;28;20064;-68
2022/12/04 11:39:38;;;;;;;24.37;8.80;;;2.90;99.90;;;;;;5003449;28;20034;-68
2022/12/04 11:42:13;;;;;;;22.33;8.48;;;2.80;99.90;;;;;;5002904;28;20046;-68
2022/12/04 11:44:39;;;;;;;19.77;8.48;;;2.80;99.90;;;;;;4979661;28;20049;-67
2022/12/04 11:47:14;;;;;;;24.63;9.03;;;2.90;99.90;;;;;;5008686;28;20033;-67
2022/12/04 11:49:41;;;;;;;22.60;9.02;;;2.90;99.90;;;;;;4999811;28;20037;-68
2022/12/04 11:52:13;;;;;;;30.23;10.60;;;2.80;99.90;;;;;;4986960;28;20087;-67
2022/12/04 11:54:48;;;;;;;29.33;10.48;;;2.90;99.90;;;;;;4989350;28;20599;-68
2022/12/04 11:57:25;;;;;;;21.67;9.48;;;2.90;99.90;;;;;;5005606;28;20030;-68
2022/12/04 12:00:03;;;;;;;19.42;8.85;;;2.90;99.90;;;;;;4991992;28;20034;-68
2022/12/04 12:02:59;;;;;;;25.08;10.23;;;2.90;99.90;;;;;;4983091;28;20541;-67
2022/12/04 12:05:40;;;;;;;24.83;8.70;;;2.90;99.90;;;;;;5003497;28;20073;-67
2022/12/04 12:08:31;;;;;;;20.88;7.38;;;2.90;99.90;;;;;;4999453;28;20037;-68
2022/12/04 12:11:28;;;;;;;14.73;6.20;;;2.90;99.90;;;;;;5000060;28;20432;-67
2022/12/04 12:14:18;;;;;;;18.10;7.55;;;2.90;99.90;;;;;;4993330;28;20034;-68
2022/12/04 12:16:53;;;;;;;14.10;5.88;;;2.90;99.90;;;;;;5005126;28;20107;-68
2022/12/04 12:19:42;;;;;;;16.02;6.35;;;2.90;99.90;;;;;;5007631;28;20146;-68
2022/12/04 12:22:17;;;;;;;11.60;5.72;;;2.80;99.90;;;;;;4989433;28;20276;-68
2022/12/04 12:25:15;;;;;;;15.63;7.25;;;2.80;99.90;;;;;;4991570;28;20066;-68
2022/12/04 12:27:51;;;;;;;16.30;7.47;;;2.80;99.90;;;;;;4990498;28;20108;-68
2022/12/04 12:30:20;;;;;;;21.23;7.90;;;2.80;99.90;;;;;;5007134;28;20045;-67
2022/12/04 12:33:06;;;;;;;21.92;8.10;;;2.80;99.90;;;;;;5007124;28;20451;-68
2022/12/04 12:35:52;;;;;;;19.85;8.93;;;2.90;99.90;;;;;;4977794;28;20124;-67
2022/12/04 12:38:26;;;;;;;24.83;9.00;;;2.80;99.90;;;;;;4990930;28;20042;-68
2022/12/04 12:41:01;;;;;;;23.33;8.25;;;2.90;99.90;;;;;;4985760;28;20132;-67
2022/12/04 12:43:32;;;;;;;20.95;8.13;;;2.90;99.90;;;;;;4987310;28;20049;-68
2022/12/04 12:46:31;;;;;;;22.80;9.05;;;2.90;99.90;;;;;;5005677;28;20050;-68
2022/12/04 12:49:03;;;;;;;25.83;8.45;;;2.90;99.90;;;;;;4989540;28;20365;-68
2022/12/04 12:51:49;;;;;;;19.02;7.35;;;2.90;99.90;;;;;;5010821;28;20057;-67
2022/12/04 12:54:21;;;;;;;23.45;9.45;;;2.90;99.90;;;;;;5007768;28;20096;-68
2022/12/04 12:56:54;;;;;;;24.60;9.50;;;2.90;99.90;;;;;;5007813;28;20038;-68
2022/12/04 12:59:24;;;;;;;21.00;8.05;;;3.00;99.90;;;;;;4992019;28;20120;-68
2022/12/04 13:01:56;;;;;;;13.98;6.72;;;3.00;99.90;;;;;;5006587;28;20100;-68
2022/12/04 13:04:36;;;;;;;14.02;6.32;;;3.00;99.90;;;;;;5008751;28;20399;-68
2022/12/04 13:07:17;;;;;;;16.00;6.57;;;3.00;99.90;;;;;;5007103;28;20149;-68
2022/12/04 13:10:00;;;;;;;15.35;6.38;;;3.00;99.90;;;;;;5005712;28;20046;-68
2022/12/04 13:12:27;;;;;;;14.35;6.50;;;3.10;99.90;;;;;;5010722;28;20525;-68
2022/12/04 13:14:53;;;;;;;13.88;5.97;;;3.10;99.90;;;;;;4983604;28;20048;-68
2022/12/04 13:17:32;;;;;;;19.20;7.47;;;3.10;99.90;;;;;;4996463;28;20037;-68